sensor_id;sensor_type;location;lat;lon;timestamp;P1;durP1;ratioP1;P2;durP2;ratioP2
78322;SDS011;67583;50.616;-3.404;2023-04-24T00:01:23;18.90;;;11.27;;
78322;SDS011;67583;50.616;-3.404;2023-04-24T00:03:49;27.63;;;12.07;;
78322;SDS011;67583;50.616;-3.404;2023-04-24T00:08:41;18.23;;;11.38;;
78322;SDS011;67583;50.616;-3.404;2023-04-24T00:11:07;21.23;;;12.07;;
78322;SDS011;67583;50.616;-3.404;2023-04-24T00:13:34;19.13;;;12.98;;
78322;SDS011;67583;50.616;-3.404;2023-04-24T00:16:00;19.23;;;11.43;;
78322;SDS011;67583;50.616;-3.404;2023-04-24T00:20:50;17.83;;;10.97;;
78322;SDS011;67583;50.616;-3.404;2023-04-24T00:25:41;22.63;;;11.73;;
78322;SDS011;67583;50.616;-3.404;2023-04-24T00:30:31;22.67;;;12.70;;
78322;SDS011;67583;50.616;-3.404;2023-04-24T00:35:22;18.17;;;10.98;;
78322;SDS011;67583;50.616;-3.404;2023-04-24T00:37:48;20.83;;;11.65;;
78322;SDS011;67583;50.616;-3.404;2023-04-24T00:42:39;18.13;;;11.73;;
78322;SDS011;67583;50.616;-3.404;2023-04-24T00:45:05;16.38;;;10.95;;
78322;SDS011;67583;50.616;-3.404;2023-04-24T00:47:32;15.32;;;9.85;;
78322;SDS011;67583;50.616;-3.404;2023-04-24T00:49:58;21.85;;;11.82;;
78322;SDS011;67583;50.616;-3.404;2023-04-24T00:52:23;21.35;;;10.80;;
78322;SDS011;67583;50.616;-3.404;2023-04-24T00:54:50;15.40;;;11.27;;
78322;SDS011;67583;50.616;-3.404;2023-04-24T00:57:15;21.63;;;10.77;;
78322;SDS011;67583;50.616;-3.404;2023-04-24T01:02:07;19.92;;;11.38;;
78322;SDS011;67583;50.616;-3.404;2023-04-24T01:04:33;19.75;;;11.20;;
78322;SDS011;67583;50.616;-3.404;2023-04-24T01:06:59;17.02;;;10.90;;
78322;SDS011;67583;50.616;-3.404;2023-04-24T01:09:25;16.10;;;10.48;;
78322;SDS011;67583;50.616;-3.404;2023-04-24T01:14:16;18.07;;;9.13;;
78322;SDS011;67583;50.616;-3.404;2023-04-24T01:19:07;17.55;;;9.70;;
78322;SDS011;67583;50.616;-3.404;2023-04-24T01:21:35;17.20;;;10.88;;
78322;SDS011;67583;50.616;-3.404;2023-04-24T01:24:02;17.83;;;10.55;;
78322;SDS011;67583;50.616;-3.404;2023-04-24T01:26:28;21.45;;;11.88;;
78322;SDS011;67583;50.616;-3.404;2023-04-24T01:28:54;18.23;;;10.85;;
78322;SDS011;67583;50.616;-3.404;2023-04-24T01:31:19;20.40;;;11.05;;
78322;SDS011;67583;50.616;-3.404;2023-04-24T01:36:10;14.53;;;9.13;;
78322;SDS011;67583;50.616;-3.404;2023-04-24T01:41:02;13.30;;;8.90;;
78322;SDS011;67583;50.616;-3.404;2023-04-24T01:43:28;16.17;;;9.43;;
78322;SDS011;67583;50.616;-3.404;2023-04-24T01:48:18;14.50;;;8.17;;
78322;SDS011;67583;50.616;-3.404;2023-04-24T01:53:09;16.88;;;8.75;;
78322;SDS011;67583;50.616;-3.404;2023-04-24T01:58:00;12.00;;;8.00;;
78322;SDS011;67583;50.616;-3.404;2023-04-24T02:00:27;13.80;;;7.40;;
78322;SDS011;67583;50.616;-3.404;2023-04-24T02:02:52;11.05;;;6.97;;
78322;SDS011;67583;50.616;-3.404;2023-04-24T02:07:43;12.13;;;7.28;;
78322;SDS011;67583;50.616;-3.404;2023-04-24T02:10:08;10.40;;;6.85;;
78322;SDS011;67583;50.616;-3.404;2023-04-24T02:15:00;8.90;;;6.30;;
78322;SDS011;67583;50.616;-3.404;2023-04-24T02:19:50;12.68;;;7.55;;
78322;SDS011;67583;50.616;-3.404;2023-04-24T02:24:41;12.13;;;7.40;;
78322;SDS011;67583;50.616;-3.404;2023-04-24T02:27:07;9.85;;;6.13;;
78322;SDS011;67583;50.616;-3.404;2023-04-24T02:31:57;16.53;;;9.00;;
78322;SDS011;67583;50.616;-3.404;2023-04-24T02:36:48;12.48;;;7.65;;
78322;SDS011;67583;50.616;-3.404;2023-04-24T02:39:14;13.27;;;7.45;;
78322;SDS011;67583;50.616;-3.404;2023-04-24T02:41:43;9.63;;;6.82;;
78322;SDS011;67583;50.616;-3.404;2023-04-24T02:44:09;9.68;;;6.38;;
78322;SDS011;67583;50.616;-3.404;2023-04-24T02:46:34;12.23;;;7.60;;
78322;SDS011;67583;50.616;-3.404;2023-04-24T02:49:03;10.50;;;7.45;;
78322;SDS011;67583;50.616;-3.404;2023-04-24T02:51:28;8.90;;;5.90;;
78322;SDS011;67583;50.616;-3.404;2023-04-24T02:56:19;10.73;;;6.30;;
78322;SDS011;67583;50.616;-3.404;2023-04-24T03:01:10;9.27;;;5.80;;
78322;SDS011;67583;50.616;-3.404;2023-04-24T03:06:01;9.90;;;6.32;;
78322;SDS011;67583;50.616;-3.404;2023-04-24T03:10:52;12.25;;;7.18;;
78322;SDS011;67583;50.616;-3.404;2023-04-24T03:15:43;12.07;;;7.13;;
78322;SDS011;67583;50.616;-3.404;2023-04-24T03:20:33;10.20;;;6.75;;
78322;SDS011;67583;50.616;-3.404;2023-04-24T03:25:24;15.75;;;6.95;;
78322;SDS011;67583;50.616;-3.404;2023-04-24T03:30:15;11.17;;;6.73;;
78322;SDS011;67583;50.616;-3.404;2023-04-24T03:35:06;10.40;;;6.88;;
78322;SDS011;67583;50.616;-3.404;2023-04-24T03:37:33;10.90;;;6.43;;
78322;SDS011;67583;50.616;-3.404;2023-04-24T03:42:23;10.23;;;6.20;;
78322;SDS011;67583;50.616;-3.404;2023-04-24T03:47:14;11.35;;;6.60;;
78322;SDS011;67583;50.616;-3.404;2023-04-24T03:49:40;11.13;;;7.13;;
78322;SDS011;67583;50.616;-3.404;2023-04-24T03:52:05;16.05;;;6.75;;
78322;SDS011;67583;50.616;-3.404;2023-04-24T03:56:56;9.93;;;6.65;;
78322;SDS011;67583;50.616;-3.404;2023-04-24T04:01:47;13.53;;;8.23;;
78322;SDS011;67583;50.616;-3.404;2023-04-24T04:04:13;14.48;;;8.93;;
78322;SDS011;67583;50.616;-3.404;2023-04-24T04:06:39;18.58;;;10.80;;
78322;SDS011;67583;50.616;-3.404;2023-04-24T04:11:30;19.43;;;9.70;;
78322;SDS011;67583;50.616;-3.404;2023-04-24T04:13:55;13.38;;;7.90;;
78322;SDS011;67583;50.616;-3.404;2023-04-24T04:16:22;13.90;;;7.78;;
78322;SDS011;67583;50.616;-3.404;2023-04-24T04:18:47;15.13;;;8.50;;
78322;SDS011;67583;50.616;-3.404;2023-04-24T04:23:38;11.35;;;7.28;;
78322;SDS011;67583;50.616;-3.404;2023-04-24T04:26:05;10.32;;;6.30;;
78322;SDS011;67583;50.616;-3.404;2023-04-24T04:30:56;12.70;;;7.75;;
78322;SDS011;67583;50.616;-3.404;2023-04-24T04:35:48;10.23;;;6.70;;
78322;SDS011;67583;50.616;-3.404;2023-04-24T04:38:14;11.30;;;6.95;;
78322;SDS011;67583;50.616;-3.404;2023-04-24T04:40:41;12.60;;;7.32;;
78322;SDS011;67583;50.616;-3.404;2023-04-24T04:45:36;11.43;;;7.40;;
78322;SDS011;67583;50.616;-3.404;2023-04-24T04:48:02;11.77;;;7.38;;
78322;SDS011;67583;50.616;-3.404;2023-04-24T04:50:28;16.83;;;7.38;;
78322;SDS011;67583;50.616;-3.404;2023-04-24T04:55:19;12.55;;;6.95;;
78322;SDS011;67583;50.616;-3.404;2023-04-24T04:57:45;13.10;;;6.97;;
78322;SDS011;67583;50.616;-3.404;2023-04-24T05:00:11;15.15;;;8.90;;
78322;SDS011;67583;50.616;-3.404;2023-04-24T05:02:38;12.55;;;8.15;;
78322;SDS011;67583;50.616;-3.404;2023-04-24T05:05:04;13.32;;;8.00;;
78322;SDS011;67583;50.616;-3.404;2023-04-24T05:07:31;13.52;;;7.57;;
78322;SDS011;67583;50.616;-3.404;2023-04-24T05:12:22;11.55;;;6.75;;
78322;SDS011;67583;50.616;-3.404;2023-04-24T05:14:47;12.40;;;7.70;;
78322;SDS011;67583;50.616;-3.404;2023-04-24T05:19:38;11.27;;;6.27;;
78322;SDS011;67583;50.616;-3.404;2023-04-24T05:24:32;11.85;;;6.85;;
78322;SDS011;67583;50.616;-3.404;2023-04-24T05:26:58;11.43;;;6.50;;
78322;SDS011;67583;50.616;-3.404;2023-04-24T05:29:24;9.32;;;6.68;;
78322;SDS011;67583;50.616;-3.404;2023-04-24T05:31:51;12.52;;;6.95;;
78322;SDS011;67583;50.616;-3.404;2023-04-24T05:34:26;12.38;;;8.18;;
78322;SDS011;67583;50.616;-3.404;2023-04-24T05:36:53;14.45;;;7.63;;
78322;SDS011;67583;50.616;-3.404;2023-04-24T05:41:45;11.15;;;5.57;;
78322;SDS011;67583;50.616;-3.404;2023-04-24T05:46:37;11.80;;;7.15;;
78322;SDS011;67583;50.616;-3.404;2023-04-24T05:51:28;11.27;;;6.30;;
78322;SDS011;67583;50.616;-3.404;2023-04-24T05:53:56;12.55;;;7.15;;
78322;SDS011;67583;50.616;-3.404;2023-04-24T05:58:48;11.65;;;6.20;;
78322;SDS011;67583;50.616;-3.404;2023-04-24T06:03:42;9.23;;;5.47;;
78322;SDS011;67583;50.616;-3.404;2023-04-24T06:06:10;10.60;;;6.40;;
78322;SDS011;67583;50.616;-3.404;2023-04-24T06:08:37;9.68;;;6.55;;
78322;SDS011;67583;50.616;-3.404;2023-04-24T06:11:03;10.43;;;7.70;;
78322;SDS011;67583;50.616;-3.404;2023-04-24T06:15:54;10.40;;;5.93;;
78322;SDS011;67583;50.616;-3.404;2023-04-24T06:20:46;9.80;;;5.32;;
78322;SDS011;67583;50.616;-3.404;2023-04-24T06:23:14;11.63;;;5.88;;
78322;SDS011;67583;50.616;-3.404;2023-04-24T06:25:44;8.85;;;5.80;;
78322;SDS011;67583;50.616;-3.404;2023-04-24T06:28:12;10.32;;;5.90;;
78322;SDS011;67583;50.616;-3.404;2023-04-24T06:30:42;10.85;;;5.43;;
78322;SDS011;67583;50.616;-3.404;2023-04-24T06:33:10;9.85;;;5.55;;
78322;SDS011;67583;50.616;-3.404;2023-04-24T06:35:39;8.55;;;5.40;;
78322;SDS011;67583;50.616;-3.404;2023-04-24T06:38:05;10.05;;;6.03;;
78322;SDS011;67583;50.616;-3.404;2023-04-24T06:40:32;23.58;;;8.50;;
78322;SDS011;67583;50.616;-3.404;2023-04-24T06:42:58;12.73;;;6.30;;
78322;SDS011;67583;50.616;-3.404;2023-04-24T06:45:25;11.27;;;6.00;;
78322;SDS011;67583;50.616;-3.404;2023-04-24T06:47:51;10.68;;;5.85;;
78322;SDS011;67583;50.616;-3.404;2023-04-24T06:52:44;6.97;;;4.40;;
78322;SDS011;67583;50.616;-3.404;2023-04-24T06:55:13;9.40;;;6.03;;
78322;SDS011;67583;50.616;-3.404;2023-04-24T06:57:45;8.05;;;5.25;;
78322;SDS011;67583;50.616;-3.404;2023-04-24T07:00:13;8.93;;;4.10;;
78322;SDS011;67583;50.616;-3.404;2023-04-24T07:02:39;9.02;;;5.45;;
78322;SDS011;67583;50.616;-3.404;2023-04-24T07:05:05;10.68;;;5.55;;
78322;SDS011;67583;50.616;-3.404;2023-04-24T07:07:31;11.23;;;5.68;;
78322;SDS011;67583;50.616;-3.404;2023-04-24T07:12:32;11.48;;;4.97;;
78322;SDS011;67583;50.616;-3.404;2023-04-24T07:15:02;9.60;;;4.55;;
78322;SDS011;67583;50.616;-3.404;2023-04-24T07:17:28;6.20;;;4.70;;
78322;SDS011;67583;50.616;-3.404;2023-04-24T07:19:56;7.25;;;4.15;;
78322;SDS011;67583;50.616;-3.404;2023-04-24T07:22:25;9.95;;;4.25;;
78322;SDS011;67583;50.616;-3.404;2023-04-24T07:24:53;11.52;;;4.53;;
78322;SDS011;67583;50.616;-3.404;2023-04-24T07:27:25;14.23;;;5.28;;
78322;SDS011;67583;50.616;-3.404;2023-04-24T07:29:54;11.52;;;5.40;;
78322;SDS011;67583;50.616;-3.404;2023-04-24T07:32:24;8.43;;;4.00;;
78322;SDS011;67583;50.616;-3.404;2023-04-24T07:34:53;10.93;;;4.22;;
78322;SDS011;67583;50.616;-3.404;2023-04-24T07:37:21;8.75;;;4.00;;
78322;SDS011;67583;50.616;-3.404;2023-04-24T07:39:48;8.57;;;3.72;;
78322;SDS011;67583;50.616;-3.404;2023-04-24T07:42:15;9.35;;;4.25;;
78322;SDS011;67583;50.616;-3.404;2023-04-24T07:44:56;6.78;;;3.55;;
78322;SDS011;67583;50.616;-3.404;2023-04-24T07:47:25;7.85;;;3.80;;
78322;SDS011;67583;50.616;-3.404;2023-04-24T07:49:52;5.57;;;3.60;;
78322;SDS011;67583;50.616;-3.404;2023-04-24T07:52:21;7.82;;;3.72;;
78322;SDS011;67583;50.616;-3.404;2023-04-24T07:54:48;8.18;;;3.22;;
78322;SDS011;67583;50.616;-3.404;2023-04-24T07:57:16;5.80;;;3.33;;
78322;SDS011;67583;50.616;-3.404;2023-04-24T07:59:47;8.10;;;4.13;;
78322;SDS011;67583;50.616;-3.404;2023-04-24T08:02:13;12.45;;;4.35;;
78322;SDS011;67583;50.616;-3.404;2023-04-24T08:04:41;8.73;;;3.50;;
78322;SDS011;67583;50.616;-3.404;2023-04-24T08:07:10;10.90;;;5.22;;
78322;SDS011;67583;50.616;-3.404;2023-04-24T08:09:39;9.07;;;4.15;;
78322;SDS011;67583;50.616;-3.404;2023-04-24T08:12:06;16.17;;;5.10;;
78322;SDS011;67583;50.616;-3.404;2023-04-24T08:14:33;12.18;;;3.88;;
78322;SDS011;67583;50.616;-3.404;2023-04-24T08:16:59;9.18;;;4.43;;
78322;SDS011;67583;50.616;-3.404;2023-04-24T08:19:28;9.57;;;4.75;;
78322;SDS011;67583;50.616;-3.404;2023-04-24T08:21:56;8.38;;;3.85;;
78322;SDS011;67583;50.616;-3.404;2023-04-24T08:24:23;8.20;;;5.70;;
78322;SDS011;67583;50.616;-3.404;2023-04-24T08:26:50;5.75;;;3.67;;
78322;SDS011;67583;50.616;-3.404;2023-04-24T08:29:20;8.48;;;4.03;;
78322;SDS011;67583;50.616;-3.404;2023-04-24T08:31:52;9.75;;;4.38;;
78322;SDS011;67583;50.616;-3.404;2023-04-24T08:34:21;8.52;;;4.32;;
78322;SDS011;67583;50.616;-3.404;2023-04-24T08:36:49;17.60;;;5.03;;
78322;SDS011;67583;50.616;-3.404;2023-04-24T08:39:19;17.75;;;4.10;;
78322;SDS011;67583;50.616;-3.404;2023-04-24T08:41:46;9.70;;;3.95;;
78322;SDS011;67583;50.616;-3.404;2023-04-24T08:44:14;8.98;;;3.95;;
78322;SDS011;67583;50.616;-3.404;2023-04-24T08:46:44;7.72;;;3.60;;
78322;SDS011;67583;50.616;-3.404;2023-04-24T08:49:13;10.73;;;3.72;;
78322;SDS011;67583;50.616;-3.404;2023-04-24T08:51:43;9.18;;;4.45;;
78322;SDS011;67583;50.616;-3.404;2023-04-24T08:54:13;9.93;;;4.10;;
78322;SDS011;67583;50.616;-3.404;2023-04-24T08:56:40;8.98;;;3.58;;
78322;SDS011;67583;50.616;-3.404;2023-04-24T08:59:10;13.30;;;4.63;;
78322;SDS011;67583;50.616;-3.404;2023-04-24T09:01:37;10.48;;;5.10;;
78322;SDS011;67583;50.616;-3.404;2023-04-24T09:04:07;14.65;;;3.88;;
78322;SDS011;67583;50.616;-3.404;2023-04-24T09:06:37;14.20;;;3.90;;
78322;SDS011;67583;50.616;-3.404;2023-04-24T09:09:03;11.13;;;3.85;;
78322;SDS011;67583;50.616;-3.404;2023-04-24T09:11:32;13.23;;;3.55;;
78322;SDS011;67583;50.616;-3.404;2023-04-24T09:13:59;8.35;;;3.97;;
78322;SDS011;67583;50.616;-3.404;2023-04-24T09:16:27;8.65;;;3.63;;
78322;SDS011;67583;50.616;-3.404;2023-04-24T09:18:53;13.20;;;4.03;;
78322;SDS011;67583;50.616;-3.404;2023-04-24T09:21:21;14.07;;;3.75;;
78322;SDS011;67583;50.616;-3.404;2023-04-24T09:23:59;6.68;;;3.97;;
78322;SDS011;67583;50.616;-3.404;2023-04-24T09:26:29;12.43;;;3.53;;
78322;SDS011;67583;50.616;-3.404;2023-04-24T09:29:00;7.35;;;3.63;;
78322;SDS011;67583;50.616;-3.404;2023-04-24T09:31:29;9.25;;;3.67;;
78322;SDS011;67583;50.616;-3.404;2023-04-24T09:34:01;10.45;;;4.20;;
78322;SDS011;67583;50.616;-3.404;2023-04-24T09:36:35;8.07;;;4.00;;
78322;SDS011;67583;50.616;-3.404;2023-04-24T09:39:05;15.60;;;4.90;;
78322;SDS011;67583;50.616;-3.404;2023-04-24T09:41:45;12.05;;;3.90;;
78322;SDS011;67583;50.616;-3.404;2023-04-24T09:46:54;9.07;;;3.53;;
78322;SDS011;67583;50.616;-3.404;2023-04-24T09:49:24;11.45;;;3.55;;
78322;SDS011;67583;50.616;-3.404;2023-04-24T09:52:06;10.75;;;3.63;;
78322;SDS011;67583;50.616;-3.404;2023-04-24T09:54:36;7.90;;;3.50;;
78322;SDS011;67583;50.616;-3.404;2023-04-24T09:57:04;11.45;;;3.17;;
78322;SDS011;67583;50.616;-3.404;2023-04-24T09:59:38;10.07;;;3.17;;
78322;SDS011;67583;50.616;-3.404;2023-04-24T10:02:16;6.03;;;3.00;;
78322;SDS011;67583;50.616;-3.404;2023-04-24T10:04:56;6.30;;;3.13;;
78322;SDS011;67583;50.616;-3.404;2023-04-24T10:07:22;7.18;;;2.92;;
78322;SDS011;67583;50.616;-3.404;2023-04-24T10:09:52;10.45;;;3.90;;
78322;SDS011;67583;50.616;-3.404;2023-04-24T10:12:21;12.43;;;3.70;;
78322;SDS011;67583;50.616;-3.404;2023-04-24T10:14:50;5.90;;;3.00;;
78322;SDS011;67583;50.616;-3.404;2023-04-24T10:17:16;7.55;;;3.13;;
78322;SDS011;67583;50.616;-3.404;2023-04-24T10:19:42;9.57;;;3.15;;
78322;SDS011;67583;50.616;-3.404;2023-04-24T10:22:08;9.82;;;3.25;;
78322;SDS011;67583;50.616;-3.404;2023-04-24T10:24:35;5.55;;;3.30;;
78322;SDS011;67583;50.616;-3.404;2023-04-24T10:27:03;9.50;;;3.10;;
78322;SDS011;67583;50.616;-3.404;2023-04-24T10:29:34;7.70;;;3.28;;
78322;SDS011;67583;50.616;-3.404;2023-04-24T10:32:07;7.63;;;3.38;;
78322;SDS011;67583;50.616;-3.404;2023-04-24T10:37:04;6.57;;;3.03;;
78322;SDS011;67583;50.616;-3.404;2023-04-24T10:39:33;8.55;;;3.10;;
78322;SDS011;67583;50.616;-3.404;2023-04-24T10:42:13;8.60;;;3.78;;
78322;SDS011;67583;50.616;-3.404;2023-04-24T10:44:44;9.40;;;4.18;;
78322;SDS011;67583;50.616;-3.404;2023-04-24T10:47:14;13.80;;;3.28;;
78322;SDS011;67583;50.616;-3.404;2023-04-24T10:49:40;7.60;;;2.90;;
78322;SDS011;67583;50.616;-3.404;2023-04-24T10:52:08;7.10;;;2.90;;
78322;SDS011;67583;50.616;-3.404;2023-04-24T10:54:46;10.43;;;3.22;;
78322;SDS011;67583;50.616;-3.404;2023-04-24T11:02:38;8.73;;;2.90;;
78322;SDS011;67583;50.616;-3.404;2023-04-24T11:05:06;9.02;;;3.25;;
78322;SDS011;67583;50.616;-3.404;2023-04-24T11:08:22;9.18;;;3.78;;
78322;SDS011;67583;50.616;-3.404;2023-04-24T11:11:24;8.82;;;3.17;;
78322;SDS011;67583;50.616;-3.404;2023-04-24T11:19:00;7.03;;;3.47;;
78322;SDS011;67583;50.616;-3.404;2023-04-24T11:21:28;7.80;;;3.22;;
78322;SDS011;67583;50.616;-3.404;2023-04-24T11:23:57;10.05;;;3.33;;
78322;SDS011;67583;50.616;-3.404;2023-04-24T11:26:23;10.00;;;3.42;;
78322;SDS011;67583;50.616;-3.404;2023-04-24T11:28:55;8.95;;;3.20;;
78322;SDS011;67583;50.616;-3.404;2023-04-24T11:31:40;10.63;;;3.50;;
78322;SDS011;67583;50.616;-3.404;2023-04-24T11:34:13;11.20;;;3.95;;
78322;SDS011;67583;50.616;-3.404;2023-04-24T11:36:39;9.15;;;3.38;;
78322;SDS011;67583;50.616;-3.404;2023-04-24T11:39:09;10.27;;;4.05;;
78322;SDS011;67583;50.616;-3.404;2023-04-24T11:41:36;8.25;;;3.33;;
78322;SDS011;67583;50.616;-3.404;2023-04-24T11:44:02;7.53;;;3.08;;
78322;SDS011;67583;50.616;-3.404;2023-04-24T11:46:30;12.32;;;3.10;;
78322;SDS011;67583;50.616;-3.404;2023-04-24T11:48:57;6.35;;;2.58;;
78322;SDS011;67583;50.616;-3.404;2023-04-24T11:51:23;6.30;;;2.95;;
78322;SDS011;67583;50.616;-3.404;2023-04-24T11:53:51;8.23;;;2.60;;
78322;SDS011;67583;50.616;-3.404;2023-04-24T11:56:24;6.88;;;3.05;;
78322;SDS011;67583;50.616;-3.404;2023-04-24T11:58:54;7.07;;;2.70;;
78322;SDS011;67583;50.616;-3.404;2023-04-24T12:01:20;4.15;;;2.28;;
78322;SDS011;67583;50.616;-3.404;2023-04-24T12:03:49;4.03;;;2.50;;
78322;SDS011;67583;50.616;-3.404;2023-04-24T12:06:17;9.15;;;3.08;;
78322;SDS011;67583;50.616;-3.404;2023-04-24T12:08:47;8.45;;;2.60;;
78322;SDS011;67583;50.616;-3.404;2023-04-24T12:11:14;3.67;;;2.45;;
78322;SDS011;67583;50.616;-3.404;2023-04-24T12:13:40;6.97;;;2.58;;
78322;SDS011;67583;50.616;-3.404;2023-04-24T12:16:07;6.88;;;2.67;;
78322;SDS011;67583;50.616;-3.404;2023-04-24T12:18:33;5.35;;;2.50;;
78322;SDS011;67583;50.616;-3.404;2023-04-24T12:23:47;2.80;;;2.10;;
78322;SDS011;67583;50.616;-3.404;2023-04-24T12:26:17;3.38;;;2.10;;
78322;SDS011;67583;50.616;-3.404;2023-04-24T12:28:45;4.88;;;2.22;;
78322;SDS011;67583;50.616;-3.404;2023-04-24T12:31:11;4.47;;;2.70;;
78322;SDS011;67583;50.616;-3.404;2023-04-24T12:33:37;5.05;;;2.33;;
78322;SDS011;67583;50.616;-3.404;2023-04-24T12:36:03;4.90;;;2.40;;
78322;SDS011;67583;50.616;-3.404;2023-04-24T12:38:30;3.03;;;2.15;;
78322;SDS011;67583;50.616;-3.404;2023-04-24T12:41:05;2.75;;;2.05;;
78322;SDS011;67583;50.616;-3.404;2023-04-24T12:43:32;3.42;;;2.33;;
78322;SDS011;67583;50.616;-3.404;2023-04-24T12:45:57;4.35;;;2.72;;
78322;SDS011;67583;50.616;-3.404;2023-04-24T12:48:24;5.60;;;2.50;;
78322;SDS011;67583;50.616;-3.404;2023-04-24T12:50:50;4.38;;;2.55;;
78322;SDS011;67583;50.616;-3.404;2023-04-24T12:53:16;3.10;;;2.10;;
78322;SDS011;67583;50.616;-3.404;2023-04-24T12:55:41;5.53;;;2.20;;
78322;SDS011;67583;50.616;-3.404;2023-04-24T12:58:07;4.35;;;2.40;;
78322;SDS011;67583;50.616;-3.404;2023-04-24T13:00:32;5.05;;;2.58;;
78322;SDS011;67583;50.616;-3.404;2023-04-24T13:02:58;9.98;;;3.25;;
78322;SDS011;67583;50.616;-3.404;2023-04-24T13:05:23;4.65;;;3.42;;
78322;SDS011;67583;50.616;-3.404;2023-04-24T13:07:49;5.90;;;3.80;;
78322;SDS011;67583;50.616;-3.404;2023-04-24T13:10:14;5.78;;;3.50;;
78322;SDS011;67583;50.616;-3.404;2023-04-24T13:12:40;7.47;;;3.70;;
78322;SDS011;67583;50.616;-3.404;2023-04-24T13:15:06;5.68;;;3.17;;
78322;SDS011;67583;50.616;-3.404;2023-04-24T13:17:31;4.85;;;2.95;;
78322;SDS011;67583;50.616;-3.404;2023-04-24T13:19:58;8.63;;;3.90;;
78322;SDS011;67583;50.616;-3.404;2023-04-24T13:22:23;7.40;;;4.20;;
78322;SDS011;67583;50.616;-3.404;2023-04-24T13:24:48;4.80;;;3.22;;
78322;SDS011;67583;50.616;-3.404;2023-04-24T13:27:14;6.28;;;3.28;;
78322;SDS011;67583;50.616;-3.404;2023-04-24T13:29:40;5.70;;;3.13;;
78322;SDS011;67583;50.616;-3.404;2023-04-24T13:32:09;4.78;;;3.35;;
78322;SDS011;67583;50.616;-3.404;2023-04-24T13:34:36;4.82;;;3.38;;
78322;SDS011;67583;50.616;-3.404;2023-04-24T13:37:01;4.90;;;2.78;;
78322;SDS011;67583;50.616;-3.404;2023-04-24T13:39:28;5.07;;;3.30;;
78322;SDS011;67583;50.616;-3.404;2023-04-24T13:41:54;4.70;;;3.85;;
78322;SDS011;67583;50.616;-3.404;2023-04-24T13:44:20;7.78;;;3.10;;
78322;SDS011;67583;50.616;-3.404;2023-04-24T13:46:46;4.22;;;3.20;;
78322;SDS011;67583;50.616;-3.404;2023-04-24T13:49:13;4.85;;;3.35;;
78322;SDS011;67583;50.616;-3.404;2023-04-24T13:51:41;6.32;;;3.90;;
78322;SDS011;67583;50.616;-3.404;2023-04-24T13:54:08;3.92;;;2.90;;
78322;SDS011;67583;50.616;-3.404;2023-04-24T13:56:34;5.05;;;3.60;;
78322;SDS011;67583;50.616;-3.404;2023-04-24T13:58:59;4.40;;;3.55;;
78322;SDS011;67583;50.616;-3.404;2023-04-24T14:01:25;5.10;;;3.70;;
78322;SDS011;67583;50.616;-3.404;2023-04-24T14:03:52;6.32;;;3.65;;
78322;SDS011;67583;50.616;-3.404;2023-04-24T14:06:18;6.47;;;3.08;;
78322;SDS011;67583;50.616;-3.404;2023-04-24T14:08:44;4.05;;;2.95;;
78322;SDS011;67583;50.616;-3.404;2023-04-24T14:11:09;6.13;;;3.30;;
78322;SDS011;67583;50.616;-3.404;2023-04-24T14:13:35;4.53;;;3.30;;
78322;SDS011;67583;50.616;-3.404;2023-04-24T14:16:01;7.80;;;3.67;;
78322;SDS011;67583;50.616;-3.404;2023-04-24T14:18:27;4.88;;;3.38;;
78322;SDS011;67583;50.616;-3.404;2023-04-24T14:20:52;4.85;;;2.90;;
78322;SDS011;67583;50.616;-3.404;2023-04-24T14:23:18;3.65;;;2.65;;
78322;SDS011;67583;50.616;-3.404;2023-04-24T14:25:43;6.88;;;3.88;;
78322;SDS011;67583;50.616;-3.404;2023-04-24T14:28:09;8.45;;;3.67;;
78322;SDS011;67583;50.616;-3.404;2023-04-24T14:30:34;3.58;;;2.85;;
78322;SDS011;67583;50.616;-3.404;2023-04-24T14:33:04;4.28;;;2.95;;
78322;SDS011;67583;50.616;-3.404;2023-04-24T14:35:30;3.70;;;2.60;;
78322;SDS011;67583;50.616;-3.404;2023-04-24T14:37:57;4.95;;;2.67;;
78322;SDS011;67583;50.616;-3.404;2023-04-24T14:40:23;4.97;;;2.83;;
78322;SDS011;67583;50.616;-3.404;2023-04-24T14:42:49;8.77;;;2.92;;
78322;SDS011;67583;50.616;-3.404;2023-04-24T14:45:15;6.07;;;3.00;;
78322;SDS011;67583;50.616;-3.404;2023-04-24T14:47:40;5.47;;;3.20;;
78322;SDS011;67583;50.616;-3.404;2023-04-24T14:50:06;5.57;;;3.80;;
78322;SDS011;67583;50.616;-3.404;2023-04-24T14:52:33;4.93;;;3.53;;
78322;SDS011;67583;50.616;-3.404;2023-04-24T14:54:58;6.05;;;3.65;;
78322;SDS011;67583;50.616;-3.404;2023-04-24T14:57:24;4.40;;;2.92;;
78322;SDS011;67583;50.616;-3.404;2023-04-24T14:59:49;5.18;;;2.92;;
78322;SDS011;67583;50.616;-3.404;2023-04-24T15:02:15;5.20;;;3.05;;
78322;SDS011;67583;50.616;-3.404;2023-04-24T15:04:40;4.80;;;3.45;;
78322;SDS011;67583;50.616;-3.404;2023-04-24T15:07:06;6.10;;;3.95;;
78322;SDS011;67583;50.616;-3.404;2023-04-24T15:09:31;3.72;;;2.92;;
78322;SDS011;67583;50.616;-3.404;2023-04-24T15:11:57;4.10;;;2.70;;
78322;SDS011;67583;50.616;-3.404;2023-04-24T15:14:23;4.50;;;2.70;;
78322;SDS011;67583;50.616;-3.404;2023-04-24T15:16:48;4.60;;;3.30;;
78322;SDS011;67583;50.616;-3.404;2023-04-24T15:19:14;4.75;;;3.65;;
78322;SDS011;67583;50.616;-3.404;2023-04-24T15:21:39;5.38;;;3.40;;
78322;SDS011;67583;50.616;-3.404;2023-04-24T15:24:07;3.72;;;3.33;;
78322;SDS011;67583;50.616;-3.404;2023-04-24T15:26:32;5.50;;;3.53;;
78322;SDS011;67583;50.616;-3.404;2023-04-24T15:28:58;4.80;;;3.75;;
78322;SDS011;67583;50.616;-3.404;2023-04-24T15:31:23;4.03;;;3.45;;
78322;SDS011;67583;50.616;-3.404;2023-04-24T15:33:52;4.57;;;3.53;;
78322;SDS011;67583;50.616;-3.404;2023-04-24T15:36:17;6.30;;;4.07;;
78322;SDS011;67583;50.616;-3.404;2023-04-24T15:38:44;6.82;;;3.47;;
78322;SDS011;67583;50.616;-3.404;2023-04-24T15:41:09;5.15;;;3.55;;
78322;SDS011;67583;50.616;-3.404;2023-04-24T15:43:35;4.25;;;3.30;;
78322;SDS011;67583;50.616;-3.404;2023-04-24T15:46:01;4.60;;;3.20;;
78322;SDS011;67583;50.616;-3.404;2023-04-24T15:48:27;5.13;;;3.78;;
78322;SDS011;67583;50.616;-3.404;2023-04-24T15:50:53;4.03;;;3.53;;
78322;SDS011;67583;50.616;-3.404;2023-04-24T15:53:19;5.15;;;3.15;;
78322;SDS011;67583;50.616;-3.404;2023-04-24T15:55:48;4.47;;;3.55;;
78322;SDS011;67583;50.616;-3.404;2023-04-24T15:58:13;3.70;;;3.08;;
78322;SDS011;67583;50.616;-3.404;2023-04-24T16:00:39;5.00;;;3.83;;
78322;SDS011;67583;50.616;-3.404;2023-04-24T16:03:04;5.07;;;3.78;;
78322;SDS011;67583;50.616;-3.404;2023-04-24T16:05:30;4.32;;;3.38;;
78322;SDS011;67583;50.616;-3.404;2023-04-24T16:07:56;4.07;;;3.35;;
78322;SDS011;67583;50.616;-3.404;2023-04-24T16:10:21;5.13;;;3.15;;
78322;SDS011;67583;50.616;-3.404;2023-04-24T16:12:47;3.65;;;2.75;;
78322;SDS011;67583;50.616;-3.404;2023-04-24T16:15:12;4.38;;;2.88;;
78322;SDS011;67583;50.616;-3.404;2023-04-24T16:17:37;4.07;;;3.40;;
78322;SDS011;67583;50.616;-3.404;2023-04-24T16:20:03;4.25;;;3.47;;
78322;SDS011;67583;50.616;-3.404;2023-04-24T16:22:29;5.25;;;4.00;;
78322;SDS011;67583;50.616;-3.404;2023-04-24T16:24:55;4.47;;;3.50;;
78322;SDS011;67583;50.616;-3.404;2023-04-24T16:27:23;6.00;;;4.43;;
78322;SDS011;67583;50.616;-3.404;2023-04-24T16:29:51;3.92;;;2.97;;
78322;SDS011;67583;50.616;-3.404;2023-04-24T16:32:17;5.18;;;3.38;;
78322;SDS011;67583;50.616;-3.404;2023-04-24T16:34:42;7.78;;;3.78;;
78322;SDS011;67583;50.616;-3.404;2023-04-24T16:37:07;5.53;;;3.63;;
78322;SDS011;67583;50.616;-3.404;2023-04-24T16:39:33;4.18;;;3.35;;
78322;SDS011;67583;50.616;-3.404;2023-04-24T16:41:59;5.15;;;3.28;;
78322;SDS011;67583;50.616;-3.404;2023-04-24T16:44:25;4.85;;;3.42;;
78322;SDS011;67583;50.616;-3.404;2023-04-24T16:46:51;4.43;;;3.45;;
78322;SDS011;67583;50.616;-3.404;2023-04-24T16:49:16;5.45;;;3.45;;
78322;SDS011;67583;50.616;-3.404;2023-04-24T16:51:42;3.78;;;3.15;;